Time;durP1;ratioP1;P1;durP2;ratioP2;P2;SDS_P1;SDS_P2;PMS_P1;PMS_P2;Temp;Humidity;BMP_temperature;BMP_pressure;BME280_temperature;BME280_humidity;BME280_pressure;Samples;Min_cycle;Max_cycle;Signal;HPM_P1;HPM_P2
2023/06/05 00:01:43;;;;;;;1.00;1.00;;;11.80;99.90;;;;;;5054356;28;20166;-74
2023/06/05 00:04:09;;;;;;;0.70;0.70;;;11.80;99.90;;;;;;5054200;28;20669;-74
2023/06/05 00:06:37;;;;;;;1.13;1.10;;;11.70;99.90;;;;;;5053936;28;20202;-74
2023/06/05 00:09:03;;;;;;;1.00;0.90;;;11.70;99.90;;;;;;5054328;28;20166;-72
2023/06/05 00:11:29;;;;;;;0.60;0.60;;;11.70;99.90;;;;;;5054082;28;20170;-73
2023/06/05 00:13:55;;;;;;;0.90;0.73;;;11.70;99.90;;;;;;5054030;28;20952;-73
2023/06/05 00:16:21;;;;;;;5.23;3.30;;;11.70;99.90;;;;;;5053877;28;20196;-72
2023/06/05 00:18:47;;;;;;;1.57;1.47;;;11.70;99.90;;;;;;5053945;28;20570;-72
2023/06/05 00:21:13;;;;;;;2.67;2.57;;;11.70;99.90;;;;;;5054045;28;20761;-73
2023/06/05 00:23:39;;;;;;;2.73;2.53;;;11.80;99.90;;;;;;5053940;28;20400;-73
2023/06/05 00:26:04;;;;;;;0.90;0.90;;;11.70;99.90;;;;;;5053571;28;20485;-74
2023/06/05 00:28:30;;;;;;;2.70;1.30;;;11.70;99.90;;;;;;5053874;28;20620;-74
2023/06/05 00:30:56;;;;;;;2.00;1.80;;;11.80;99.90;;;;;;5053917;28;20300;-72
2023/06/05 00:33:21;;;;;;;1.43;1.43;;;11.80;99.90;;;;;;5053670;28;20249;-74
2023/06/05 00:35:47;;;;;;;1.90;1.80;;;11.80;99.90;;;;;;5053250;28;20686;-74
2023/06/05 00:38:13;;;;;;;0.60;0.60;;;11.70;99.90;;;;;;5053668;28;20170;-74
2023/06/05 00:40:38;;;;;;;1.10;0.97;;;11.60;99.90;;;;;;5053582;28;20166;-74
2023/06/05 00:43:05;;;;;;;3.43;2.63;;;11.60;99.90;;;;;;5053657;28;20182;-73
2023/06/05 00:45:31;;;;;;;0.70;0.70;;;11.50;99.90;;;;;;5051375;28;20680;-75
2023/06/05 00:47:57;;;;;;;1.83;1.73;;;11.40;99.90;;;;;;5053449;28;20411;-74
2023/06/05 00:50:23;;;;;;;3.37;2.30;;;11.50;99.90;;;;;;5053236;28;20185;-75
2023/06/05 00:52:49;;;;;;;2.00;1.90;;;11.50;99.90;;;;;;5053630;28;20167;-74
2023/06/05 00:55:15;;;;;;;1.33;1.23;;;11.50;99.90;;;;;;5053256;28;20430;-74
2023/06/05 00:57:41;;;;;;;1.67;1.57;;;11.50;99.90;;;;;;5053089;28;20550;-73
2023/06/05 01:00:08;;;;;;;3.20;3.03;;;11.40;99.90;;;;;;5053530;28;20699;-74
2023/06/05 01:02:37;;;;;;;2.50;1.40;;;11.40;99.90;;;;;;5053319;28;20809;-73
2023/06/05 01:05:03;;;;;;;4.00;2.35;;;11.40;99.90;;;;;;5053199;28;20424;-72
2023/06/05 01:07:32;;;;;;;1.50;0.93;;;11.50;99.90;;;;;;5053060;28;20180;-74
2023/06/05 01:10:03;;;;;;;1.00;0.77;;;11.50;99.90;;;;;;5053218;28;20458;-72
2023/06/05 01:13:02;;;;;;;1.90;1.70;;;11.40;99.90;;;;;;5053300;28;20404;-74
2023/06/05 01:15:29;;;;;;;3.08;2.85;;;11.30;99.90;;;;;;5052385;28;20214;-74
2023/06/05 01:17:59;;;;;;;2.00;1.80;;;11.30;99.90;;;;;;5053338;28;20166;-74
2023/06/05 01:20:35;;;;;;;2.25;1.20;;;11.30;99.90;;;;;;5053190;28;20396;-73
2023/06/05 01:23:08;;;;;;;0.95;0.95;;;11.30;99.90;;;;;;5053254;28;20162;-73
2023/06/05 01:25:36;;;;;;;1.30;1.30;;;11.40;99.90;;;;;;5052804;28;20697;-73
2023/06/05 01:28:16;;;;;;;3.40;2.30;;;11.40;99.90;;;;;;5053207;28;20176;-73
2023/06/05 01:30:53;;;;;;;1.80;1.50;;;11.30;99.90;;;;;;5053115;28;20409;-74
2023/06/05 01:33:44;;;;;;;1.70;1.50;;;11.30;99.90;;;;;;5053282;28;20896;-72
2023/06/05 01:36:14;;;;;;;2.40;1.95;;;11.20;99.90;;;;;;5052680;28;20452;-72
2023/06/05 01:38:41;;;;;;;0.97;0.97;;;11.20;99.90;;;;;;5052890;28;20170;-75
2023/06/05 01:41:08;;;;;;;5.68;2.40;;;11.20;99.90;;;;;;5052951;28;20393;-73
2023/06/05 01:43:35;;;;;;;1.53;1.20;;;11.20;99.90;;;;;;5053187;28;20253;-72
2023/06/05 01:46:01;;;;;;;2.25;2.15;;;11.10;99.90;;;;;;5052696;28;20814;-74
2023/06/05 01:48:30;;;;;;;2.30;2.10;;;11.20;99.90;;;;;;5052824;28;20183;-73
2023/06/05 01:50:58;;;;;;;0.83;0.83;;;11.20;99.90;;;;;;5052862;28;20171;-74
2023/06/05 01:53:24;;;;;;;3.30;2.47;;;11.10;99.90;;;;;;5052837;28;20495;-74
2023/06/05 01:55:52;;;;;;;1.95;1.83;;;11.10;99.90;;;;;;5053763;28;20805;-74
2023/06/05 01:58:19;;;;;;;1.83;1.55;;;11.20;99.90;;;;;;5056827;28;20173;-74
2023/06/05 02:00:46;;;;;;;1.60;1.50;;;11.30;99.90;;;;;;5056659;28;20174;-74
2023/06/05 02:03:11;;;;;;;2.00;1.70;;;11.30;99.90;;;;;;5056549;28;20170;-74
2023/06/05 02:05:38;;;;;;;4.20;1.33;;;11.30;99.90;;;;;;5056177;28;20647;-73
2023/06/05 02:08:05;;;;;;;2.25;2.05;;;11.20;99.90;;;;;;5056494;28;20249;-73
2023/06/05 02:10:31;;;;;;;1.07;1.00;;;11.20;99.90;;;;;;5056475;28;20174;-74
2023/06/05 02:12:57;;;;;;;5.40;1.97;;;11.10;99.90;;;;;;5056466;28;20495;-73
2023/06/05 02:15:23;;;;;;;2.83;0.83;;;11.20;99.90;;;;;;5056213;28;20416;-73
2023/06/05 02:17:53;;;;;;;0.70;0.70;;;11.20;99.90;;;;;;5056243;28;21033;-73
2023/06/05 02:20:22;;;;;;;1.33;1.23;;;11.10;99.90;;;;;;5056182;28;20162;-74
2023/06/05 02:22:51;;;;;;;1.10;1.10;;;11.10;99.90;;;;;;5056365;28;20196;-74
2023/06/05 02:25:21;;;;;;;1.73;1.63;;;11.10;99.90;;;;;;5056164;28;20189;-73
2023/06/05 02:27:47;;;;;;;2.35;1.73;;;11.10;99.90;;;;;;5056019;28;20568;-73
2023/06/05 02:30:13;;;;;;;1.03;1.03;;;11.10;99.90;;;;;;5056133;28;20174;-73
2023/06/05 02:32:43;;;;;;;2.30;1.37;;;11.10;99.90;;;;;;5056402;28;20185;-73
2023/06/05 02:35:10;;;;;;;1.63;1.52;;;11.20;99.90;;;;;;5055904;28;20436;-73
2023/06/05 02:37:46;;;;;;;1.98;1.88;;;11.20;99.90;;;;;;5055722;28;20209;-74
2023/06/05 02:40:14;;;;;;;1.52;1.42;;;11.20;99.90;;;;;;5055934;28;20162;-75
2023/06/05 02:42:40;;;;;;;0.68;0.68;;;11.10;99.90;;;;;;5055886;28;20224;-73
2023/06/05 02:45:07;;;;;;;0.63;0.63;;;11.10;99.90;;;;;;5055679;28;20701;-73
2023/06/05 02:47:33;;;;;;;9.05;1.50;;;11.20;99.90;;;;;;5055530;28;20220;-72
2023/06/05 02:50:00;;;;;;;1.20;1.10;;;11.20;99.90;;;;;;5055478;28;20218;-74
2023/06/05 02:52:27;;;;;;;6.82;2.10;;;11.10;99.90;;;;;;5055650;28;20848;-72
2023/06/05 02:54:52;;;;;;;1.13;1.13;;;11.00;99.90;;;;;;5055426;28;20200;-74
2023/06/05 02:57:18;;;;;;;0.60;0.60;;;11.00;99.90;;;;;;5055212;28;20276;-73
2023/06/05 02:59:44;;;;;;;4.63;2.00;;;11.00;99.90;;;;;;5055471;28;20211;-74
2023/06/05 03:02:11;;;;;;;2.15;0.93;;;11.00;99.90;;;;;;5055436;28;20170;-74
2023/06/05 03:04:39;;;;;;;1.08;1.08;;;11.00;99.90;;;;;;5055354;28;20210;-73
2023/06/05 03:07:05;;;;;;;1.02;1.02;;;10.90;99.90;;;;;;5054658;28;20173;-74
2023/06/05 03:09:31;;;;;;;0.93;0.93;;;11.00;99.90;;;;;;5055269;28;20232;-74
2023/06/05 03:11:58;;;;;;;1.90;1.70;;;11.00;99.90;;;;;;5055366;28;20178;-74
2023/06/05 03:14:24;;;;;;;0.90;0.90;;;11.00;99.90;;;;;;5055107;28;20186;-73
2023/06/05 03:16:50;;;;;;;0.95;0.95;;;11.00;99.90;;;;;;5054965;28;20210;-73
2023/06/05 03:19:16;;;;;;;2.92;2.70;;;11.00;99.90;;;;;;5055034;28;20576;-72
2023/06/05 03:21:42;;;;;;;4.53;2.80;;;11.00;99.90;;;;;;5055155;28;20253;-74
2023/06/05 03:24:12;;;;;;;3.80;1.70;;;11.00;99.90;;;;;;5054933;28;20212;-74
2023/06/05 03:26:39;;;;;;;3.45;2.35;;;11.00;99.90;;;;;;5054821;28;20178;-72
2023/06/05 03:29:05;;;;;;;3.17;3.08;;;11.00;99.90;;;;;;5055091;28;20579;-73
2023/06/05 03:31:31;;;;;;;0.80;0.80;;;11.10;99.90;;;;;;5054896;28;20249;-72
2023/06/05 03:33:58;;;;;;;1.03;1.03;;;11.10;99.90;;;;;;5054841;28;20214;-74
2023/06/05 03:36:24;;;;;;;0.88;0.88;;;11.10;99.90;;;;;;5054478;28;20186;-74
2023/06/05 03:38:49;;;;;;;1.50;1.23;;;11.10;99.90;;;;;;5055286;28;20170;-72
2023/06/05 03:41:16;;;;;;;0.77;0.77;;;11.10;99.90;;;;;;5054061;28;20409;-74
2023/06/05 03:43:41;;;;;;;1.02;1.02;;;10.90;99.90;;;;;;5052788;28;20167;-73
2023/06/05 03:46:07;;;;;;;1.80;1.70;;;11.00;99.90;;;;;;5053697;28;20261;-73
2023/06/05 03:48:33;;;;;;;4.70;1.60;;;11.10;99.90;;;;;;5054404;28;20838;-73
2023/06/05 03:51:00;;;;;;;1.77;1.67;;;11.10;99.90;;;;;;5052562;28;20221;-74
2023/06/05 03:53:29;;;;;;;1.05;1.05;;;11.00;99.90;;;;;;5054183;28;20196;-74
2023/06/05 03:55:56;;;;;;;1.35;1.35;;;11.10;99.90;;;;;;5054165;28;20190;-74
2023/06/05 03:58:23;;;;;;;3.45;1.20;;;11.10;99.90;;;;;;5054319;28;20171;-74
2023/06/05 04:00:48;;;;;;;2.47;2.30;;;11.20;99.90;;;;;;5054280;28;20188;-73
2023/06/05 04:03:15;;;;;;;1.70;1.27;;;11.20;99.90;;;;;;5054343;28;20674;-73
2023/06/05 04:05:41;;;;;;;0.90;0.90;;;11.20;99.90;;;;;;5053935;28;20425;-73
2023/06/05 04:08:11;;;;;;;4.32;3.15;;;11.30;99.90;;;;;;5054393;28;20186;-74
2023/06/05 04:10:37;;;;;;;3.72;1.85;;;11.30;99.90;;;;;;5054273;28;20166;-73
2023/06/05 04:13:04;;;;;;;1.25;0.88;;;11.40;99.90;;;;;;5054096;28;20196;-73
2023/06/05 04:15:29;;;;;;;5.97;1.45;;;11.40;99.90;;;;;;5053810;28;20205;-74
2023/06/05 04:17:55;;;;;;;1.03;0.80;;;11.40;99.90;;;;;;5054115;28;20178;-74
2023/06/05 04:20:22;;;;;;;8.32;2.35;;;11.30;99.90;;;;;;5053149;28;20250;-73
2023/06/05 04:22:48;;;;;;;1.23;1.13;;;11.30;99.90;;;;;;5054101;28;20182;-74
2023/06/05 04:25:14;;;;;;;0.63;0.60;;;11.40;99.90;;;;;;5053712;28;20424;-74
2023/06/05 04:27:42;;;;;;;1.37;1.27;;;11.60;99.90;;;;;;5053658;28;20427;-74
2023/06/05 04:30:09;;;;;;;0.90;0.90;;;12.00;99.90;;;;;;5053787;28;20907;-73
2023/06/05 04:32:39;;;;;;;2.23;1.90;;;12.50;99.90;;;;;;5053942;28;20466;-74
2023/06/05 04:35:06;;;;;;;1.63;1.53;;;13.00;99.90;;;;;;5053733;28;20423;-73
2023/06/05 04:37:32;;;;;;;1.30;1.20;;;13.30;99.90;;;;;;5053500;28;20854;-73
2023/06/05 04:39:58;;;;;;;1.30;1.30;;;13.50;99.90;;;;;;5053627;28;20412;-74
2023/06/05 04:42:27;;;;;;;1.93;1.70;;;13.50;99.90;;;;;;5053591;28;20400;-74
2023/06/05 04:45:01;;;;;;;3.07;2.57;;;13.60;99.90;;;;;;5053429;28;20512;-74
2023/06/05 04:47:27;;;;;;;1.60;1.33;;;13.80;99.90;;;;;;5053519;28;20408;-74
2023/06/05 04:49:54;;;;;;;2.20;2.10;;;14.20;99.90;;;;;;5053316;28;20437;-75
2023/06/05 04:52:20;;;;;;;1.40;1.30;;;14.40;99.90;;;;;;5053338;28;20417;-74
2023/06/05 04:54:47;;;;;;;1.30;1.27;;;14.50;99.90;;;;;;5053549;28;20478;-72
2023/06/05 04:57:12;;;;;;;1.53;1.43;;;14.50;99.90;;;;;;5053057;28;20453;-74
2023/06/05 04:59:38;;;;;;;1.50;1.40;;;14.50;99.90;;;;;;5053418;28;20488;-72
2023/06/05 05:02:04;;;;;;;1.50;1.40;;;14.60;99.90;;;;;;5053470;28;20722;-74
2023/06/05 05:04:30;;;;;;;2.43;1.27;;;14.60;99.90;;;;;;5053221;28;20438;-73
2023/06/05 05:07:00;;;;;;;0.80;0.80;;;14.60;99.90;;;;;;5053176;28;20669;-75
2023/06/05 05:09:27;;;;;;;1.83;1.43;;;14.60;99.90;;;;;;5053459;28;20170;-74
2023/06/05 05:11:52;;;;;;;1.80;1.50;;;14.70;99.90;;;;;;5053325;28;20409;-73
2023/06/05 05:14:18;;;;;;;2.00;1.60;;;15.00;99.90;;;;;;5053448;28;20784;-74
2023/06/05 05:16:44;;;;;;;1.63;0.83;;;14.80;99.90;;;;;;5053068;28;20184;-73
2023/06/05 05:19:10;;;;;;;2.90;2.70;;;14.90;99.90;;;;;;5053846;28;20244;-73
2023/06/05 05:21:36;;;;;;;1.17;1.17;;;14.90;99.90;;;;;;5053064;28;20492;-73
2023/06/05 05:24:02;;;;;;;1.67;1.57;;;14.80;99.90;;;;;;5053080;28;20496;-75
2023/06/05 05:26:27;;;;;;;1.17;1.17;;;14.90;99.90;;;;;;5053118;28;20238;-74
2023/06/05 05:28:53;;;;;;;2.80;2.27;;;15.10;99.90;;;;;;5052992;28;20532;-74
2023/06/05 05:31:19;;;;;;;2.03;1.80;;;15.60;99.90;;;;;;5054571;28;20170;-75
2023/06/05 05:33:45;;;;;;;1.27;1.27;;;16.80;99.90;;;;;;5056134;28;20170;-74
2023/06/05 05:36:10;;;;;;;1.27;0.97;;;16.60;99.90;;;;;;5055739;28;20820;-74
2023/06/05 05:38:36;;;;;;;2.63;1.57;;;16.90;99.20;;;;;;5057783;28;20173;-74
2023/06/05 05:41:01;;;;;;;1.67;1.57;;;17.20;98.20;;;;;;5057043;28;20662;-74
2023/06/05 05:43:28;;;;;;;1.43;1.33;;;18.00;99.90;;;;;;5056825;28;20294;-73
2023/06/05 05:45:54;;;;;;;1.57;1.47;;;18.00;96.90;;;;;;5056855;28;20538;-75
2023/06/05 05:48:19;;;;;;;2.10;1.90;;;18.00;96.20;;;;;;5056926;28;20401;-74
2023/06/05 05:50:45;;;;;;;1.60;1.50;;;17.80;95.30;;;;;;5057219;28;20178;-74
2023/06/05 05:53:11;;;;;;;0.60;0.60;;;17.80;95.80;;;;;;5051271;28;20548;-73
2023/06/05 05:55:36;;;;;;;1.13;0.97;;;17.80;96.20;;;;;;5041412;28;20206;-70
2023/06/05 05:58:02;;;;;;;0.90;0.90;;;17.90;96.00;;;;;;5056844;28;20402;-73
2023/06/05 06:00:28;;;;;;;1.70;0.83;;;18.10;95.70;;;;;;5056797;28;20604;-73
2023/06/05 06:02:54;;;;;;;2.17;1.87;;;18.50;95.30;;;;;;5056755;28;20245;-75
2023/06/05 06:05:20;;;;;;;1.07;1.07;;;19.00;95.40;;;;;;5056358;28;20274;-74
2023/06/05 06:07:46;;;;;;;1.17;1.07;;;19.60;95.50;;;;;;5056644;28;20529;-74
2023/06/05 06:10:12;;;;;;;1.07;1.00;;;20.30;94.50;;;;;;5056572;28;20806;-74
2023/06/05 06:12:39;;;;;;;1.00;0.90;;;20.60;94.20;;;;;;5056832;28;20670;-77
2023/06/05 06:15:05;;;;;;;2.17;0.97;;;20.70;92.40;;;;;;5056283;28;20427;-72
2023/06/05 06:17:31;;;;;;;1.57;1.47;;;20.90;90.90;;;;;;5056238;28;20446;-71
2023/06/05 06:19:57;;;;;;;1.13;1.03;;;21.30;93.20;;;;;;5056254;28;20499;-72
2023/06/05 06:22:23;;;;;;;1.03;1.03;;;22.40;87.90;;;;;;5056383;28;20400;-72
2023/06/05 06:24:50;;;;;;;1.13;1.00;;;24.00;88.30;;;;;;5056127;28;20186;-73
2023/06/05 06:27:17;;;;;;;1.63;1.53;;;25.50;78.20;;;;;;5056140;28;20163;-73
2023/06/05 06:29:52;;;;;;;1.50;1.03;;;26.80;73.70;;;;;;5056280;28;20401;-71
2023/06/05 06:32:18;;;;;;;2.40;1.20;;;28.10;65.20;;;;;;5056251;28;21019;-72
2023/06/05 06:34:44;;;;;;;1.37;0.90;;;29.00;66.00;;;;;;5056128;28;20516;-72
2023/06/05 06:37:14;;;;;;;1.43;1.23;;;30.10;60.60;;;;;;5055772;28;20440;-72
2023/06/05 06:39:41;;;;;;;2.63;1.33;;;31.00;55.50;;;;;;5056058;28;20393;-73
2023/06/05 06:42:09;;;;;;;2.27;1.67;;;31.30;53.70;;;;;;5054932;28;20408;-73
2023/06/05 06:44:35;;;;;;;3.07;1.57;;;31.50;53.30;;;;;;5054551;28;20796;-73
2023/06/05 06:47:01;;;;;;;1.37;1.17;;;31.60;53.20;;;;;;5055510;28;20413;-73
2023/06/05 06:49:27;;;;;;;1.73;1.17;;;31.50;52.90;;;;;;5055624;28;20425;-72
2023/06/05 06:51:53;;;;;;;2.33;1.53;;;31.10;52.10;;;;;;5055777;28;20627;-71
2023/06/05 06:54:19;;;;;;;0.80;0.80;;;30.90;55.20;;;;;;5055661;28;20182;-71
2023/06/05 06:56:45;;;;;;;3.53;1.03;;;30.30;51.30;;;;;;5055365;28;20221;-73
2023/06/05 06:59:12;;;;;;;0.80;0.80;;;30.00;51.80;;;;;;5055667;28;20166;-70
2023/06/05 07:01:45;;;;;;;1.20;1.07;;;29.00;46.10;;;;;;5055481;28;20511;-73
2023/06/05 07:04:19;;;;;;;1.93;1.40;;;28.30;51.10;;;;;;5055538;28;20455;-72
2023/06/05 07:06:47;;;;;;;0.83;0.83;;;27.20;46.50;;;;;;5055374;28;20396;-72
2023/06/05 07:09:13;;;;;;;1.13;0.83;;;26.50;50.50;;;;;;5055955;28;20436;-73
2023/06/05 07:11:39;;;;;;;0.93;0.90;;;26.70;55.10;;;;;;5055097;28;20467;-74
2023/06/05 07:14:04;;;;;;;2.33;1.40;;;26.90;52.10;;;;;;5055136;28;20186;-73
2023/06/05 07:16:31;;;;;;;1.20;0.73;;;26.30;46.50;;;;;;5054900;28;20205;-73
2023/06/05 07:18:57;;;;;;;2.50;1.70;;;25.80;48.50;;;;;;5054872;28;20181;-72
2023/06/05 07:21:22;;;;;;;1.10;1.00;;;25.70;48.80;;;;;;5054711;28;20772;-73
2023/06/05 07:23:51;;;;;;;1.27;1.17;;;25.90;51.60;;;;;;5055354;28;20501;-73
2023/06/05 07:26:17;;;;;;;0.80;0.80;;;25.80;46.10;;;;;;5054558;28;20175;-73
2023/06/05 07:28:43;;;;;;;2.40;1.33;;;25.70;45.40;;;;;;5054703;28;20420;-73
2023/06/05 07:31:10;;;;;;;0.67;0.67;;;26.00;47.50;;;;;;5053394;28;20409;-73
2023/06/05 07:33:35;;;;;;;2.17;1.47;;;26.60;49.20;;;;;;5053129;28;20375;-73
2023/06/05 07:36:01;;;;;;;0.80;0.80;;;26.90;45.00;;;;;;5054355;28;20440;-74
2023/06/05 07:38:27;;;;;;;1.13;1.13;;;27.20;49.10;;;;;;5054390;28;20174;-73
2023/06/05 07:40:53;;;;;;;0.97;0.87;;;27.00;41.00;;;;;;5055372;28;20511;-73
2023/06/05 07:43:18;;;;;;;0.83;0.83;;;27.30;46.10;;;;;;5054749;28;20256;-73
2023/06/05 07:45:44;;;;;;;1.10;0.93;;;28.40;47.80;;;;;;5053922;28;20233;-73
2023/06/05 07:48:10;;;;;;;1.20;1.20;;;29.40;44.30;;;;;;5054918;28;20159;-73
2023/06/05 07:50:35;;;;;;;0.80;0.80;;;30.40;39.70;;;;;;5053875;28;20483;-73
2023/06/05 07:53:01;;;;;;;2.17;1.50;;;31.10;39.80;;;;;;5054582;28;20166;-74
2023/06/05 07:55:27;;;;;;;0.73;0.70;;;32.20;38.90;;;;;;5054275;28;20243;-73
2023/06/05 07:57:54;;;;;;;0.90;0.80;;;32.60;37.20;;;;;;5054507;28;20206;-75
2023/06/05 08:00:22;;;;;;;1.40;1.30;;;32.80;35.70;;;;;;5054501;28;20714;-74
2023/06/05 08:02:48;;;;;;;1.60;0.83;;;33.20;32.90;;;;;;5039546;28;20464;-74
2023/06/05 08:05:16;;;;;;;1.10;0.80;;;33.40;33.70;;;;;;5049731;28;20753;-75
2023/06/05 08:07:42;;;;;;;1.33;1.00;;;33.60;31.10;;;;;;5034634;28;20414;-73
2023/06/05 08:10:09;;;;;;;0.93;0.90;;;34.20;30.70;;;;;;5044110;28;20420;-74
2023/06/05 08:12:35;;;;;;;0.87;0.87;;;34.80;31.40;;;;;;5053001;28;20417;-74
2023/06/05 08:15:01;;;;;;;0.87;0.80;;;35.40;29.70;;;;;;5054398;28;20416;-75
2023/06/05 08:17:28;;;;;;;1.43;1.30;;;36.40;34.20;;;;;;5053834;28;20535;-74
2023/06/05 08:19:56;;;;;;;1.97;1.80;;;37.10;31.90;;;;;;5034454;28;20418;-73
2023/06/05 08:22:22;;;;;;;0.80;0.80;;;37.60;30.00;;;;;;5034599;28;20504;-73
2023/06/05 08:24:49;;;;;;;1.37;1.00;;;37.30;28.00;;;;;;5033087;28;20441;-73
2023/06/05 08:27:18;;;;;;;1.40;1.10;;;37.00;30.10;;;;;;5033831;28;20410;-74
2023/06/05 08:29:44;;;;;;;1.00;0.87;;;36.40;28.70;;;;;;5034127;28;20401;-73
2023/06/05 08:32:10;;;;;;;1.20;1.10;;;34.30;28.30;;;;;;5034406;28;20413;-74
2023/06/05 08:34:35;;;;;;;2.33;1.20;;;32.40;29.90;;;;;;5034198;28;20183;-72
2023/06/05 08:37:02;;;;;;;1.30;1.20;;;31.30;32.30;;;;;;5053378;28;20198;-74
2023/06/05 08:39:31;;;;;;;2.00;1.20;;;30.20;35.00;;;;;;5053669;28;20154;-73
2023/06/05 08:42:02;;;;;;;2.30;1.37;;;29.30;35.30;;;;;;5053671;28;20487;-73
2023/06/05 08:44:28;;;;;;;1.33;1.13;;;28.30;39.20;;;;;;5053573;28;20432;-73
2023/06/05 08:47:00;;;;;;;1.17;1.03;;;27.50;38.70;;;;;;5053263;28;20416;-74
2023/06/05 08:49:32;;;;;;;1.30;1.10;;;26.80;42.00;;;;;;5053632;28;20815;-73
2023/06/05 08:52:04;;;;;;;1.10;1.00;;;26.30;40.70;;;;;;5053260;28;20884;-74
2023/06/05 08:54:36;;;;;;;1.60;1.23;;;26.20;42.10;;;;;;5053261;28;20444;-74
2023/06/05 08:57:04;;;;;;;1.10;1.00;;;25.90;41.60;;;;;;5053018;28;20460;-73
2023/06/05 08:59:30;;;;;;;2.07;1.37;;;25.30;41.60;;;;;;5053311;28;20827;-72
2023/06/05 09:01:57;;;;;;;1.90;1.80;;;25.10;43.90;;;;;;5053318;28;20428;-74
2023/06/05 09:04:24;;;;;;;1.23;0.90;;;25.00;44.60;;;;;;5053368;28;20194;-73
2023/06/05 09:06:53;;;;;;;2.10;1.40;;;24.70;43.30;;;;;;5052532;28;20454;-72
2023/06/05 09:09:19;;;;;;;2.40;1.30;;;24.20;44.30;;;;;;5053305;28;20416;-73
2023/06/05 09:11:45;;;;;;;1.57;1.47;;;23.20;43.40;;;;;;5053263;28;20375;-72
2023/06/05 09:14:10;;;;;;;0.97;0.97;;;22.40;44.90;;;;;;5053438;28;20569;-73
2023/06/05 09:16:42;;;;;;;0.70;0.70;;;21.90;50.00;;;;;;5052920;28;20198;-73
2023/06/05 09:19:12;;;;;;;1.63;1.30;;;21.70;50.80;;;;;;5052514;28;20532;-74
2023/06/05 09:21:39;;;;;;;0.93;0.93;;;22.60;47.30;;;;;;5052807;28;20416;-72
2023/06/05 09:24:16;;;;;;;0.97;0.87;;;24.50;47.80;;;;;;5051812;28;20782;-73
2023/06/05 09:26:56;;;;;;;1.20;1.10;;;25.60;41.60;;;;;;5052851;28;20415;-72
2023/06/05 09:29:24;;;;;;;1.90;0.83;;;23.90;42.70;;;;;;5052970;28;20384;-74
2023/06/05 09:31:52;;;;;;;1.37;1.23;;;23.70;46.80;;;;;;5053347;28;20492;-73
2023/06/05 09:34:29;;;;;;;0.90;0.80;;;24.60;43.70;;;;;;5051543;28;20436;-72
2023/06/05 09:37:02;;;;;;;1.47;1.30;;;25.60;41.50;;;;;;5051971;28;20431;-73
2023/06/05 09:39:30;;;;;;;1.43;1.00;;;25.70;44.50;;;;;;5052905;28;20392;-74
2023/06/05 09:41:57;;;;;;;2.27;1.27;;;25.30;41.30;;;;;;5053214;28;20383;-73
2023/06/05 09:44:24;;;;;;;1.50;1.37;;;24.90;44.30;;;;;;5052490;28;20490;-74
2023/06/05 09:46:51;;;;;;;1.00;0.90;;;24.50;44.30;;;;;;5052953;28;20743;-73
2023/06/05 09:49:18;;;;;;;1.53;0.87;;;24.30;47.20;;;;;;5052696;28;20908;-74
2023/06/05 09:51:44;;;;;;;1.00;0.90;;;25.40;45.00;;;;;;5053040;28;20408;-74
2023/06/05 09:54:11;;;;;;;1.23;1.13;;;27.20;40.10;;;;;;5052875;28;20425;-73
2023/06/05 09:56:41;;;;;;;1.60;1.50;;;27.70;39.10;;;;;;5052502;28;20197;-73
2023/06/05 09:59:09;;;;;;;1.53;0.93;;;27.60;40.00;;;;;;5052796;28;20461;-74
2023/06/05 10:01:36;;;;;;;1.00;1.00;;;27.20;40.00;;;;;;5052699;28;20778;-73
2023/06/05 10:04:12;;;;;;;1.20;1.10;;;26.60;41.50;;;;;;5052745;28;20432;-72
2023/06/05 10:06:40;;;;;;;1.27;1.27;;;25.90;39.90;;;;;;5052612;28;20406;-73
2023/06/05 10:09:07;;;;;;;1.30;1.20;;;25.40;43.50;;;;;;5052706;28;20387;-73
2023/06/05 10:11:33;;;;;;;0.90;0.90;;;24.80;44.30;;;;;;5052568;28;20453;-73
2023/06/05 10:13:59;;;;;;;1.50;1.40;;;24.40;46.10;;;;;;5052775;28;20406;-72
2023/06/05 10:16:29;;;;;;;0.83;0.83;;;25.20;42.40;;;;;;5050954;28;20529;-73
2023/06/05 10:18:56;;;;;;;2.60;1.60;;;25.70;40.70;;;;;;5052567;28;20410;-72
2023/06/05 10:21:23;;;;;;;1.23;1.13;;;25.40;42.20;;;;;;5053873;28;20436;-72
2023/06/05 10:23:57;;;;;;;1.03;1.03;;;24.90;42.20;;;;;;5055147;28;20432;-74
2023/06/05 10:26:31;;;;;;;3.67;1.17;;;24.60;49.00;;;;;;5055822;28;20437;-73
2023/06/05 10:29:14;;;;;;;1.43;1.00;;;24.70;44.70;;;;;;5053881;28;20513;-73
2023/06/05 10:31:58;;;;;;;1.57;1.47;;;25.60;50.10;;;;;;5055358;28;20387;-74
2023/06/05 10:34:56;;;;;;;1.67;1.57;;;26.40;45.00;;;;;;5056252;28;20826;-73
2023/06/05 10:37:30;;;;;;;1.67;1.00;;;27.10;42.90;;;;;;5053462;28;20456;-72
2023/06/05 10:39:56;;;;;;;1.97;1.33;;;26.60;41.10;;;;;;5056255;28;20439;-73
2023/06/05 10:42:29;;;;;;;2.27;1.40;;;25.80;41.90;;;;;;5055749;28;20424;-73
2023/06/05 10:44:55;;;;;;;2.00;1.90;;;25.10;42.20;;;;;;5055850;28;20194;-73
2023/06/05 10:47:33;;;;;;;1.40;1.30;;;24.70;45.50;;;;;;5055567;28;20383;-73
2023/06/05 10:50:20;;;;;;;1.43;1.33;;;25.30;48.50;;;;;;5055526;28;20416;-74
2023/06/05 10:52:47;;;;;;;2.70;1.70;;;26.20;43.70;;;;;;5055493;28;20378;-72
2023/06/05 10:55:15;;;;;;;2.00;1.00;;;26.70;44.50;;;;;;5053127;28;20432;-71
2023/06/05 10:58:07;;;;;;;1.33;1.30;;;26.30;39.50;;;;;;5055606;28;20472;-73
2023/06/05 11:00:33;;;;;;;2.30;1.80;;;25.50;39.50;;;;;;5054825;28;20399;-71
2023/06/05 11:02:59;;;;;;;1.50;1.40;;;24.80;40.20;;;;;;5053550;28;20467;-73
2023/06/05 11:05:26;;;;;;;1.67;0.83;;;24.70;43.30;;;;;;5054984;28;20788;-73
2023/06/05 11:08:15;;;;;;;0.90;0.90;;;24.50;44.90;;;;;;5053113;28;20390;-74
2023/06/05 11:11:03;;;;;;;1.10;1.10;;;24.50;49.40;;;;;;5054294;28;20801;-73
2023/06/05 11:13:51;;;;;;;0.90;0.90;;;25.00;43.30;;;;;;5055261;28;20391;-74
2023/06/05 11:16:46;;;;;;;1.20;1.10;;;25.10;40.60;;;;;;5055069;28;20423;-73
2023/06/05 11:19:21;;;;;;;1.53;1.13;;;25.00;40.50;;;;;;5054559;28;20871;-73
2023/06/05 11:22:07;;;;;;;1.23;1.13;;;24.80;43.80;;;;;;5055178;28;20390;-73
2023/06/05 11:24:35;;;;;;;1.30;1.20;;;24.50;40.40;;;;;;5055139;28;20402;-72
2023/06/05 11:27:01;;;;;;;2.37;2.00;;;24.20;40.00;;;;;;5054898;28;20470;-73
2023/06/05 11:29:29;;;;;;;1.60;1.47;;;24.00;42.70;;;;;;5054422;28;20383;-73
2023/06/05 11:31:55;;;;;;;3.30;1.90;;;24.00;43.00;;;;;;5054809;28;20495;-73
2023/06/05 11:34:21;;;;;;;2.00;0.90;;;24.10;42.30;;;;;;5055075;28;20431;-73
2023/06/05 11:36:47;;;;;;;1.07;1.00;;;24.30;41.50;;;;;;5054520;28;20456;-72
2023/06/05 11:39:13;;;;;;;3.50;1.47;;;24.80;40.40;;;;;;5054850;28;20735;-73
2023/06/05 11:41:47;;;;;;;2.97;2.03;;;25.30;39.50;;;;;;5054773;28;20408;-73
2023/06/05 11:44:13;;;;;;;2.30;1.53;;;25.80;42.20;;;;;;5055088;28;20950;-73
2023/06/05 11:46:41;;;;;;;0.80;0.80;;;26.00;40.60;;;;;;5054309;28;20909;-73
2023/06/05 11:49:10;;;;;;;2.37;1.57;;;26.20;39.20;;;;;;5054323;28;20428;-73
2023/06/05 11:51:36;;;;;;;1.27;1.17;;;26.20;41.30;;;;;;5054427;28;20764;-73
2023/06/05 11:54:04;;;;;;;4.53;1.10;;;25.90;40.60;;;;;;5054526;28;20443;-73
2023/06/05 11:56:31;;;;;;;1.60;1.50;;;25.80;42.60;;;;;;5054049;28;20469;-73
2023/06/05 11:58:57;;;;;;;0.80;0.80;;;25.80;41.80;;;;;;5051807;28;21317;-74
2023/06/05 12:01:25;;;;;;;2.10;2.00;;;25.70;40.80;;;;;;5054068;28;20569;-74
2023/06/05 12:04:07;;;;;;;0.73;0.73;;;25.60;40.90;;;;;;5054191;28;20185;-73
2023/06/05 12:06:41;;;;;;;1.60;1.37;;;25.60;40.60;;;;;;5051303;28;20387;-73
2023/06/05 12:09:11;;;;;;;0.83;0.83;;;25.20;40.70;;;;;;5054501;28;20405;-72
2023/06/05 12:11:38;;;;;;;0.83;0.80;;;24.70;47.50;;;;;;5054210;28;20896;-73
2023/06/05 12:14:04;;;;;;;0.90;0.90;;;24.20;47.10;;;;;;5054181;28;20551;-72
2023/06/05 12:16:42;;;;;;;1.53;1.43;;;24.00;49.30;;;;;;5053811;28;21020;-73
2023/06/05 12:19:19;;;;;;;1.13;1.03;;;24.00;44.20;;;;;;5053938;28;20378;-73
2023/06/05 12:21:50;;;;;;;1.80;1.70;;;23.80;44.30;;;;;;5053880;28;20383;-74
2023/06/05 12:24:23;;;;;;;1.23;0.90;;;24.00;49.00;;;;;;5050517;28;20395;-73
2023/06/05 12:26:55;;;;;;;1.00;1.00;;;24.10;47.40;;;;;;5053778;28;20375;-75
2023/06/05 12:29:28;;;;;;;1.33;1.23;;;24.20;47.80;;;;;;5053017;28;20416;-73
2023/06/05 12:31:55;;;;;;;1.00;1.00;;;24.40;47.50;;;;;;5052040;28;20900;-73
2023/06/05 12:34:40;;;;;;;1.30;1.20;;;24.50;48.60;;;;;;5054217;28;20847;-73
2023/06/05 12:37:07;;;;;;;1.33;1.23;;;24.50;48.40;;;;;;5052202;28;20430;-73
2023/06/05 12:39:34;;;;;;;1.37;1.10;;;24.50;51.30;;;;;;5051760;28;20408;-74
2023/06/05 12:42:00;;;;;;;2.27;2.07;;;24.70;48.60;;;;;;5053042;28;20375;-72
2023/06/05 12:44:25;;;;;;;1.60;1.50;;;24.90;48.40;;;;;;5052852;28;20773;-74
2023/06/05 12:46:51;;;;;;;1.40;1.30;;;25.00;47.10;;;;;;5052963;28;20181;-74
2023/06/05 12:49:16;;;;;;;1.83;1.73;;;25.00;45.50;;;;;;5053409;28;20193;-73
2023/06/05 12:51:43;;;;;;;1.17;1.17;;;25.10;45.90;;;;;;5053402;28;20177;-73
2023/06/05 12:54:08;;;;;;;3.27;1.80;;;24.90;49.80;;;;;;5053460;28;20276;-72